createdAt,value
2023-04-26T00:00:43.242Z,98113.16
2023-04-26T00:03:10.700Z,98113.88
2023-04-26T00:05:38.343Z,98139.00
2023-04-26T00:08:05.424Z,98129.56
2023-04-26T00:10:32.857Z,98120.06
2023-04-26T00:12:59.988Z,98118.34
2023-04-26T00:15:27.290Z,98130.59
2023-04-26T00:17:54.637Z,98101.16
2023-04-26T00:20:22.276Z,98123.63
2023-04-26T00:22:49.314Z,98127.00
2023-04-26T00:25:16.521Z,98121.75
2023-04-26T00:27:43.652Z,98113.88
2023-04-26T00:30:11.324Z,98117.47
2023-04-26T00:32:38.735Z,98106.88
2023-04-26T00:35:07.880Z,98112.00
2023-04-26T00:37:35.027Z,98109.38
2023-04-26T00:40:02.293Z,98103.28
2023-04-26T00:42:31.767Z,98098.94
2023-04-26T00:44:58.797Z,98112.84
2023-04-26T00:47:26.722Z,98084.22
2023-04-26T00:49:53.870Z,98102.38
2023-04-26T00:52:21.872Z,98100.59
2023-04-26T00:54:49.558Z,98087.28
2023-04-26T00:57:16.596Z,98084.78
2023-04-26T00:59:43.809Z,98082.25
2023-04-26T01:02:11.191Z,98071.63
2023-04-26T01:04:40.816Z,98082.22
2023-04-26T01:07:08.493Z,98086.59
2023-04-26T01:09:35.817Z,98069.97
2023-04-26T01:12:03.121Z,98057.09
2023-04-26T01:14:30.780Z,98059.47
2023-04-26T01:16:58.000Z,98048.19
2023-04-26T01:19:25.776Z,98041.28
2023-04-26T01:21:52.988Z,98055.91
2023-04-26T01:24:21.554Z,98060.38
2023-04-26T01:26:48.876Z,98049.03
2023-04-26T01:29:21.427Z,98048.19
2023-04-26T01:31:49.258Z,98057.75
2023-04-26T01:34:16.703Z,98045.41
2023-04-26T01:36:46.909Z,98045.41
2023-04-26T01:39:14.321Z,98041.94
2023-04-26T01:41:41.406Z,98014.41
2023-04-26T01:44:08.648Z,98027.13
2023-04-26T01:46:36.159Z,98033.38
2023-04-26T01:49:03.311Z,98036.03
2023-04-26T01:51:30.708Z,98018.50
2023-04-26T01:53:57.898Z,98027.19
2023-04-26T01:56:25.987Z,98025.31
2023-04-26T01:58:56.512Z,98008.91
2023-04-26T02:01:24.278Z,97993.31
2023-04-26T02:03:52.155Z,98010.44
2023-04-26T02:06:21.819Z,98019.09
2023-04-26T02:08:49.787Z,98001.50
2023-04-26T02:11:17.278Z,98012.06
2023-04-26T02:13:44.851Z,98006.03
2023-04-26T02:16:12.557Z,97987.84
2023-04-26T02:18:39.593Z,98006.13
2023-04-26T02:21:09.501Z,98003.38
2023-04-26T02:23:36.653Z,98005.94
2023-04-26T02:26:04.586Z,97963.63
2023-04-26T02:28:31.758Z,97994.59
2023-04-26T02:30:58.882Z,97995.59
2023-04-26T02:33:26.141Z,97967.97
2023-04-26T02:35:53.235Z,97983.44
2023-04-26T02:38:20.873Z,97988.75
2023-04-26T02:40:48.186Z,97987.03
2023-04-26T02:43:17.670Z,97969.72
2023-04-26T02:45:44.826Z,97981.16
2023-04-26T02:48:14.408Z,97974.22
2023-04-26T02:50:42.407Z,97973.41
2023-04-26T02:53:10.453Z,97974.16
2023-04-26T02:55:39.375Z,97970.59
2023-04-26T02:58:06.649Z,97948.16
2023-04-26T03:00:34.424Z,97960.38
2023-04-26T03:03:03.007Z,97956.75
2023-04-26T03:05:30.501Z,97969.78
2023-04-26T03:07:58.361Z,97955.78
2023-04-26T03:10:25.553Z,97964.44
2023-04-26T03:12:52.786Z,97948.81
2023-04-26T03:15:20.421Z,97959.03
2023-04-26T03:17:47.803Z,97958.97
2023-04-26T03:20:15.104Z,97943.38
2023-04-26T03:22:42.990Z,97950.16
2023-04-26T03:25:11.049Z,97939.75
2023-04-26T03:27:38.396Z,97950.22
2023-04-26T03:30:06.474Z,97939.63
2023-04-26T03:32:35.991Z,97926.75
2023-04-26T03:35:03.268Z,97944.06
2023-04-26T03:37:32.922Z,97940.47
2023-04-26T03:40:08.561Z,97919.88
2023-04-26T03:42:37.078Z,97948.25
2023-04-26T03:45:04.943Z,97932.44
2023-04-26T03:47:34.667Z,97937.56
2023-04-26T03:50:01.944Z,97925.19
2023-04-26T03:52:31.507Z,97908.81
2023-04-26T03:54:58.764Z,97916.34
2023-04-26T03:57:25.758Z,97923.28
2023-04-26T03:59:53.073Z,97923.13
2023-04-26T04:02:21.389Z,97923.88
2023-04-26T04:04:49.061Z,97916.72
2023-04-26T04:07:16.862Z,97896.19
2023-04-26T04:09:43.900Z,97917.75
2023-04-26T04:12:10.995Z,97917.69
2023-04-26T04:14:38.387Z,97919.31
2023-04-26T04:17:06.660Z,97912.25
2023-04-26T04:19:34.496Z,97913.81
2023-04-26T04:22:01.575Z,97905.66
2023-04-26T04:24:29.937Z,97911.69
2023-04-26T04:26:56.989Z,97893.13
2023-04-26T04:29:24.068Z,97903.38
2023-04-26T04:31:51.426Z,97910.22
2023-04-26T04:34:19.131Z,97905.69
2023-04-26T04:36:46.862Z,97904.78
2023-04-26T04:39:16.333Z,97898.63
2023-04-26T04:41:48.447Z,97906.34
2023-04-26T04:44:18.460Z,97890.78
2023-04-26T04:46:45.770Z,97903.53
2023-04-26T04:49:13.006Z,97910.34
2023-04-26T04:51:40.257Z,97916.50
2023-04-26T04:54:18.016Z,97907.75
2023-04-26T04:56:47.378Z,97901.63
2023-04-26T04:59:16.055Z,97903.13
2023-04-26T05:01:43.433Z,97896.13
2023-04-26T05:04:14.558Z,97912.63
2023-04-26T05:06:42.222Z,97894.31
2023-04-26T05:09:11.536Z,97915.09
2023-04-26T05:11:39.668Z,97915.75
2023-04-26T05:14:08.606Z,97907.00
2023-04-26T05:16:36.133Z,97906.28
2023-04-26T05:19:04.185Z,97915.00
2023-04-26T05:21:32.454Z,97896.69
2023-04-26T05:24:00.303Z,97881.72
2023-04-26T05:26:27.379Z,97893.56
2023-04-26T05:29:12.877Z,97906.59
2023-04-26T05:31:51.182Z,97897.75
2023-04-26T05:34:28.297Z,97906.25
2023-04-26T05:36:57.795Z,97897.19
2023-04-26T05:39:25.226Z,97902.28
2023-04-26T05:41:52.340Z,97898.88
2023-04-26T05:44:19.502Z,97899.44
2023-04-26T05:46:47.636Z,97899.44
2023-04-26T05:49:14.909Z,97902.66
2023-04-26T05:51:42.521Z,97904.09
2023-04-26T05:54:09.596Z,97900.41
2023-04-26T05:56:36.757Z,97887.56
2023-04-26T05:59:03.976Z,97893.47
2023-04-26T06:01:33.333Z,97895.94
2023-04-26T06:04:01.952Z,97901.34
2023-04-26T06:06:35.732Z,97908.94
2023-04-26T06:09:03.109Z,97900.16
2023-04-26T06:11:30.376Z,97911.44
2023-04-26T06:13:57.620Z,97889.91
2023-04-26T06:16:26.034Z,97920.81
2023-04-26T06:18:53.147Z,97913.94
2023-04-26T06:21:20.304Z,97905.78
2023-04-26T06:23:47.947Z,97899.94
2023-04-26T06:26:17.879Z,97918.75
2023-04-26T06:28:45.014Z,97918.53
2023-04-26T06:31:12.140Z,97922.22
2023-04-26T06:33:39.863Z,97905.22
2023-04-26T06:36:11.263Z,97893.19
2023-04-26T06:38:38.315Z,97920.34
2023-04-26T06:41:05.686Z,97890.72
2023-04-26T06:43:33.757Z,97900.94
2023-04-26T06:46:06.660Z,97914.59
2023-04-26T06:48:33.934Z,97905.78
2023-04-26T06:51:12.466Z,97922.94
2023-04-26T06:53:39.682Z,97929.50
2023-04-26T06:56:06.875Z,97918.16
2023-04-26T06:58:34.038Z,97922.28
2023-04-26T07:01:01.387Z,97927.50
2023-04-26T07:03:29.658Z,97939.69
2023-04-26T07:05:56.990Z,97922.44
2023-04-26T07:08:24.025Z,97904.16
2023-04-26T07:10:51.975Z,97926.22
2023-04-26T07:13:19.234Z,97938.03
2023-04-26T07:15:46.399Z,97915.66
2023-04-26T07:18:13.562Z,97932.66
2023-04-26T07:20:40.846Z,97943.25
2023-04-26T07:23:07.981Z,97935.50
2023-04-26T07:25:35.137Z,97946.81
2023-04-26T07:28:02.187Z,97937.84
2023-04-26T07:30:29.473Z,97946.06
2023-04-26T07:32:56.858Z,97947.09
2023-04-26T07:35:24.133Z,97953.75
2023-04-26T07:37:51.178Z,97939.53
2023-04-26T07:40:18.952Z,97942.72
2023-04-26T07:42:47.327Z,97935.25
2023-04-26T07:45:14.463Z,97936.19
2023-04-26T07:47:41.832Z,97953.25
2023-04-26T07:50:09.990Z,97960.16
2023-04-26T07:52:37.140Z,97948.63
2023-04-26T07:55:04.806Z,97965.06
2023-04-26T07:57:31.936Z,97948.34
2023-04-26T07:59:59.042Z,97964.84
2023-04-26T08:02:36.813Z,97962.56
2023-04-26T08:05:11.229Z,97971.78
2023-04-26T08:07:38.402Z,97974.44
2023-04-26T08:10:06.377Z,97962.69
2023-04-26T08:12:34.488Z,97966.72
2023-04-26T08:15:02.383Z,97955.78
2023-04-26T08:17:33.439Z,97954.81
2023-04-26T08:20:00.759Z,97960.41
2023-04-26T08:22:27.967Z,97986.38
2023-04-26T08:24:56.114Z,97977.69
2023-04-26T08:27:23.487Z,97973.38
2023-04-26T08:29:50.870Z,97982.41
2023-04-26T08:32:17.860Z,97991.28
2023-04-26T08:34:45.078Z,97996.41
2023-04-26T08:37:12.995Z,97977.19
2023-04-26T08:39:40.140Z,97982.97
2023-04-26T08:42:15.578Z,97998.84
2023-04-26T08:44:44.294Z,97992.22
2023-04-26T08:47:18.170Z,97997.97
2023-04-26T08:49:53.183Z,97981.94
2023-04-26T08:52:23.579Z,98001.56
2023-04-26T08:54:53.879Z,97999.06
2023-04-26T08:57:22.724Z,97987.38
2023-04-26T08:59:50.576Z,97989.44
2023-04-26T09:02:20.452Z,97994.69
2023-04-26T09:04:49.144Z,97989.31
2023-04-26T09:07:27.848Z,98000.22
2023-04-26T09:09:57.793Z,97991.63
2023-04-26T09:12:25.310Z,98006.66
2023-04-26T09:14:53.299Z,97993.56
2023-04-26T09:17:31.266Z,98015.78
2023-04-26T09:19:59.704Z,98002.69
2023-04-26T09:22:34.821Z,98014.97
2023-04-26T09:25:04.162Z,98019.94
2023-04-26T09:27:41.552Z,98022.44
2023-04-26T09:30:20.984Z,98021.03
2023-04-26T09:32:49.903Z,98024.31
2023-04-26T09:35:36.196Z,98026.16
2023-04-26T09:38:10.903Z,98038.69
2023-04-26T09:40:42.263Z,98035.66
2023-04-26T09:43:22.870Z,98034.09
2023-04-26T09:45:54.634Z,98037.91
2023-04-26T09:48:34.447Z,98029.31
2023-04-26T09:51:14.498Z,98034.84
2023-04-26T09:53:46.564Z,98030.91
2023-04-26T09:56:15.187Z,98041.09
2023-04-26T09:58:52.495Z,98050.50
2023-04-26T10:01:20.535Z,98039.69
2023-04-26T10:03:48.182Z,98057.78
2023-04-26T10:06:16.496Z,98038.84
2023-04-26T10:08:44.475Z,98045.88
2023-04-26T10:11:12.998Z,98061.94
2023-04-26T10:13:41.986Z,98069.28
2023-04-26T10:16:10.560Z,98069.16
2023-04-26T10:18:38.273Z,98060.44
2023-04-26T10:21:11.468Z,98060.84
2023-04-26T10:23:38.868Z,98082.06
2023-04-26T10:26:06.016Z,98074.66
2023-04-26T10:28:58.338Z,98078.00
2023-04-26T10:32:12.181Z,98052.59
2023-04-26T10:34:39.402Z,98080.03
2023-04-26T10:37:11.659Z,98087.72
2023-04-26T10:39:48.868Z,98092.19
2023-04-26T10:42:26.741Z,98080.06
2023-04-26T10:44:56.593Z,98098.81
2023-04-26T10:47:37.425Z,98099.94
2023-04-26T10:50:10.353Z,98081.91
2023-04-26T10:52:57.251Z,98097.03
2023-04-26T10:55:41.950Z,98085.47
2023-04-26T10:58:32.125Z,98100.91
2023-04-26T11:01:13.451Z,98079.50
2023-04-26T11:04:04.894Z,98112.16
2023-04-26T11:06:56.197Z,98126.50
2023-04-26T11:09:49.096Z,98089.97
2023-04-26T11:12:16.826Z,98111.84
2023-04-26T11:14:49.316Z,98130.09
2023-04-26T11:17:16.404Z,98105.59
2023-04-26T11:19:46.893Z,98133.28
2023-04-26T11:22:14.026Z,98116.78
2023-04-26T11:24:42.917Z,98116.94
2023-04-26T11:27:11.145Z,98142.41
2023-04-26T11:29:39.097Z,98121.44
2023-04-26T11:32:07.191Z,98142.66
2023-04-26T11:34:35.902Z,98135.41
2023-04-26T11:37:07.666Z,98125.81
2023-04-26T11:39:36.052Z,98132.94
2023-04-26T11:42:13.261Z,98130.03
2023-04-26T11:44:41.580Z,98138.94
2023-04-26T11:47:09.630Z,98128.09
2023-04-26T11:49:38.282Z,98145.84
2023-04-26T11:52:06.192Z,98118.72
2023-04-26T11:54:35.984Z,98139.69
2023-04-26T11:57:23.593Z,98146.47
2023-04-26T11:59:51.388Z,98144.56
2023-04-26T12:02:20.718Z,98138.47
2023-04-26T12:04:48.426Z,98147.50
2023-04-26T12:07:18.987Z,98131.16
2023-04-26T12:09:46.298Z,98150.50
2023-04-26T12:12:13.386Z,98131.03
2023-04-26T12:14:41.035Z,98143.22
2023-04-26T12:17:08.605Z,98156.88
2023-04-26T12:19:37.421Z,98161.88
2023-04-26T12:22:08.779Z,98150.41
2023-04-26T12:24:37.814Z,98153.91
2023-04-26T12:27:07.277Z,98140.53
2023-04-26T12:29:35.634Z,98152.16
2023-04-26T12:32:03.488Z,98141.13
2023-04-26T12:34:31.220Z,98145.25
2023-04-26T12:36:58.678Z,98126.28
2023-04-26T12:39:25.879Z,98150.06
2023-04-26T12:41:53.476Z,98133.56
2023-04-26T12:44:22.528Z,98143.59
2023-04-26T12:46:50.223Z,98144.16
2023-04-26T12:49:17.559Z,98167.34
2023-04-26T12:51:44.742Z,98171.00
2023-04-26T12:54:11.801Z,98179.75
2023-04-26T12:56:44.627Z,98187.53
2023-04-26T12:59:12.154Z,98168.22
2023-04-26T13:01:39.501Z,98166.59
2023-04-26T13:04:07.036Z,98152.94
2023-04-26T13:06:35.977Z,98171.56
2023-04-26T13:09:03.948Z,98153.41
2023-04-26T13:11:31.410Z,98145.72
2023-04-26T13:13:58.559Z,98162.50
2023-04-26T13:16:26.293Z,98149.44
2023-04-26T13:18:54.517Z,98164.84
2023-04-26T13:21:21.638Z,98138.31
2023-04-26T13:23:48.703Z,98145.16
2023-04-26T13:26:20.416Z,98156.75
2023-04-26T13:28:48.284Z,98163.06
2023-04-26T13:31:17.571Z,98140.91
2023-04-26T13:33:47.459Z,98164.06
2023-04-26T13:36:15.952Z,98169.19
2023-04-26T13:38:44.293Z,98178.44
2023-04-26T13:41:11.383Z,98177.41
2023-04-26T13:43:38.689Z,98147.38
2023-04-26T13:46:05.805Z,98184.25
2023-04-26T13:48:32.974Z,98168.50
2023-04-26T13:51:00.298Z,98176.16
2023-04-26T13:53:27.325Z,98173.59
2023-04-26T13:55:54.344Z,98179.59
2023-04-26T13:58:21.933Z,98190.09
2023-04-26T14:00:48.982Z,98161.22
2023-04-26T14:03:16.438Z,98182.13
2023-04-26T14:05:43.573Z,98185.41
2023-04-26T14:08:12.868Z,98190.66
2023-04-26T14:10:40.509Z,98187.19
2023-04-26T14:13:07.606Z,98176.97
2023-04-26T14:15:34.735Z,98180.56
2023-04-26T14:18:02.006Z,98183.19
2023-04-26T14:20:29.164Z,98203.56
2023-04-26T14:22:56.429Z,98203.22
2023-04-26T14:25:23.500Z,98209.06
2023-04-26T14:27:53.050Z,98201.66
2023-04-26T14:30:21.100Z,98215.09
2023-04-26T14:32:48.227Z,98194.63
2023-04-26T14:35:15.894Z,98219.22
2023-04-26T14:37:43.092Z,98197.03
2023-04-26T14:40:11.703Z,98219.63
2023-04-26T14:42:44.452Z,98198.44
2023-04-26T14:45:12.786Z,98220.00
2023-04-26T14:47:40.314Z,98218.28
2023-04-26T14:50:09.856Z,98241.13
2023-04-26T14:52:37.582Z,98220.84
2023-04-26T14:55:05.513Z,98214.63
2023-04-26T14:57:33.021Z,98216.66
2023-04-26T15:00:07.026Z,98233.66
2023-04-26T15:02:35.260Z,98249.50
2023-04-26T15:05:04.133Z,98238.31
2023-04-26T15:07:32.905Z,98247.56
2023-04-26T15:10:01.710Z,98241.25
2023-04-26T15:12:31.715Z,98259.72
2023-04-26T15:14:58.905Z,98246.75
2023-04-26T15:17:26.181Z,98267.38
2023-04-26T15:19:53.473Z,98270.28
2023-04-26T15:22:20.714Z,98264.44
2023-04-26T15:24:49.707Z,98264.25
2023-04-26T15:27:17.809Z,98271.28
2023-04-26T15:29:45.035Z,98276.06
2023-04-26T15:32:12.438Z,98279.03
2023-04-26T15:34:43.755Z,98279.44
2023-04-26T15:37:11.853Z,98290.56
2023-04-26T15:39:39.159Z,98267.25
2023-04-26T15:42:07.068Z,98289.84
2023-04-26T15:44:34.318Z,98253.00
2023-04-26T15:47:04.331Z,98285.41
2023-04-26T15:49:31.413Z,98306.22
2023-04-26T15:51:58.599Z,98279.28
2023-04-26T15:54:26.816Z,98294.63
2023-04-26T15:56:55.352Z,98278.84
2023-04-26T15:59:22.619Z,98310.13
2023-04-26T16:01:50.846Z,98300.13
2023-04-26T16:04:18.339Z,98298.81
2023-04-26T16:06:45.948Z,98303.19
2023-04-26T16:09:24.798Z,98294.63
2023-04-26T16:11:53.137Z,98320.13
2023-04-26T16:14:20.816Z,98301.91
2023-04-26T16:16:48.223Z,98308.53
2023-04-26T16:19:17.394Z,98327.75
2023-04-26T16:21:44.632Z,98304.41
2023-04-26T16:24:14.877Z,98325.94
2023-04-26T16:26:42.170Z,98307.34
2023-04-26T16:29:09.300Z,98328.97
2023-04-26T16:31:36.667Z,98333.34
2023-04-26T16:34:03.964Z,98326.63
2023-04-26T16:36:31.714Z,98297.06
2023-04-26T16:38:59.062Z,98311.03
2023-04-26T16:41:28.970Z,98337.03
2023-04-26T16:43:56.272Z,98337.72
2023-04-26T16:46:23.643Z,98336.91
2023-04-26T16:48:51.112Z,98346.75
2023-04-26T16:51:18.485Z,98351.59
2023-04-26T16:53:45.765Z,98349.72
2023-04-26T16:56:12.998Z,98361.22
2023-04-26T16:58:40.160Z,98369.84
2023-04-26T17:01:07.234Z,98357.31
2023-04-26T17:03:34.634Z,98367.59
2023-04-26T17:06:01.916Z,98346.59
2023-04-26T17:08:29.055Z,98374.28
2023-04-26T17:10:56.578Z,98381.00
2023-04-26T17:13:24.275Z,98371.13
2023-04-26T17:15:51.542Z,98380.94
2023-04-26T17:18:18.657Z,98374.44
2023-04-26T17:20:45.681Z,98373.97
2023-04-26T17:23:12.808Z,98361.75
2023-04-26T17:25:39.781Z,98385.19
2023-04-26T17:28:06.923Z,98410.19
2023-04-26T17:30:34.180Z,98389.97
2023-04-26T17:33:01.428Z,98394.78
2023-04-26T17:35:28.557Z,98415.91
2023-04-26T17:37:55.660Z,98399.84
2023-04-26T17:40:22.914Z,98404.47
2023-04-26T17:42:50.276Z,98418.16
2023-04-26T17:45:17.876Z,98433.69
2023-04-26T17:47:46.068Z,98432.09
2023-04-26T17:50:13.521Z,98431.63
2023-04-26T17:52:40.569Z,98445.06
2023-04-26T17:55:10.067Z,98450.50
2023-04-26T17:57:37.800Z,98436.56
2023-04-26T18:00:10.261Z,98452.09
2023-04-26T18:02:37.775Z,98448.53
2023-04-26T18:05:08.582Z,98448.00
2023-04-26T18:07:36.203Z,98434.56
2023-04-26T18:10:04.459Z,98437.22
2023-04-26T18:12:32.638Z,98448.28
2023-04-26T18:14:59.710Z,98458.50
2023-04-26T18:17:27.174Z,98442.38
2023-04-26T18:19:54.398Z,98444.53
2023-04-26T18:22:21.579Z,98466.50
2023-04-26T18:24:48.840Z,98462.75
2023-04-26T18:27:16.112Z,98469.94
2023-04-26T18:29:43.401Z,98449.97
2023-04-26T18:32:10.483Z,98464.53
2023-04-26T18:34:37.492Z,98450.72
2023-04-26T18:37:05.020Z,98443.13
2023-04-26T18:39:32.381Z,98460.44
2023-04-26T18:41:59.523Z,98475.38
2023-04-26T18:44:27.140Z,98471.94
2023-04-26T18:46:57.217Z,98481.97
2023-04-26T18:49:25.072Z,98478.72
2023-04-26T18:51:52.041Z,98487.84
2023-04-26T18:54:19.201Z,98453.22
2023-04-26T18:56:46.238Z,98471.81
2023-04-26T18:59:13.435Z,98501.91
2023-04-26T19:01:41.130Z,98501.13
2023-04-26T19:04:11.069Z,98495.72
2023-04-26T19:06:41.374Z,98470.44
2023-04-26T19:09:11.831Z,98470.31
2023-04-26T19:11:39.224Z,98497.34
2023-04-26T19:14:06.357Z,98482.78
2023-04-26T19:16:33.790Z,98495.94
2023-04-26T19:19:01.615Z,98492.16
2023-04-26T19:21:29.011Z,98485.94
2023-04-26T19:23:56.121Z,98490.53
2023-04-26T19:26:23.154Z,98489.13
2023-04-26T19:28:50.384Z,98483.72
2023-04-26T19:31:17.552Z,98475.19
2023-04-26T19:33:46.223Z,98484.34
2023-04-26T19:36:13.282Z,98490.44
2023-04-26T19:38:40.341Z,98494.00
2023-04-26T19:41:07.506Z,98502.06
2023-04-26T19:43:34.660Z,98511.63
2023-04-26T19:46:01.754Z,98504.09
2023-04-26T19:48:28.865Z,98501.72
2023-04-26T19:50:55.906Z,98507.97
2023-04-26T19:53:23.151Z,98516.41
2023-04-26T19:55:50.665Z,98518.75
2023-04-26T19:58:17.852Z,98508.75
2023-04-26T20:00:44.961Z,98524.00
2023-04-26T20:03:12.251Z,98511.44
2023-04-26T20:05:39.485Z,98547.31
2023-04-26T20:08:06.564Z,98537.88
2023-04-26T20:10:34.342Z,98548.50
2023-04-26T20:13:01.706Z,98538.06
2023-04-26T20:15:31.023Z,98544.16
2023-04-26T20:17:59.729Z,98544.53
2023-04-26T20:20:26.836Z,98557.84
2023-04-26T20:22:54.509Z,98531.13
2023-04-26T20:25:30.858Z,98561.56
2023-04-26T20:27:58.032Z,98559.81
2023-04-26T20:30:25.929Z,98559.00
2023-04-26T20:32:54.148Z,98509.06
2023-04-26T20:35:21.740Z,98542.78
2023-04-26T20:37:48.826Z,98551.63
2023-04-26T20:40:18.468Z,98566.47
2023-04-26T20:42:46.485Z,98564.09
2023-04-26T20:45:15.958Z,98578.28
2023-04-26T20:47:47.152Z,98565.59
2023-04-26T20:50:14.521Z,98593.03
2023-04-26T20:52:44.860Z,98552.44
2023-04-26T20:55:12.056Z,98589.22
2023-04-26T20:57:51.230Z,98584.88
2023-04-26T21:00:19.335Z,98595.25
2023-04-26T21:02:46.602Z,98572.94
2023-04-26T21:05:13.758Z,98603.44
2023-04-26T21:07:41.331Z,98609.50
2023-04-26T21:10:09.030Z,98590.53
2023-04-26T21:12:36.353Z,98590.66
2023-04-26T21:15:04.115Z,98589.88
2023-04-26T21:17:35.435Z,98581.09
2023-04-26T21:20:02.968Z,98603.88
2023-04-26T21:22:34.313Z,98611.00
2023-04-26T21:25:12.552Z,98609.38
2023-04-26T21:27:47.812Z,98606.84
2023-04-26T21:30:19.112Z,98595.69
2023-04-26T21:32:51.903Z,98599.22
2023-04-26T21:35:19.643Z,98608.03
2023-04-26T21:37:49.252Z,98608.09
2023-04-26T21:40:28.421Z,98621.28
2023-04-26T21:43:05.882Z,98623.97
2023-04-26T21:45:34.222Z,98574.53
2023-04-26T21:48:01.308Z,98617.09
2023-04-26T21:50:28.513Z,98621.59
2023-04-26T21:52:55.553Z,98594.91
2023-04-26T21:55:22.769Z,98620.97
2023-04-26T21:57:52.009Z,98628.72
2023-04-26T22:00:20.139Z,98631.31
2023-04-26T22:02:51.530Z,98624.22
2023-04-26T22:05:18.796Z,98599.59
2023-04-26T22:07:46.094Z,98604.22
2023-04-26T22:10:13.227Z,98624.78
2023-04-26T22:12:40.166Z,98630.16
2023-04-26T22:15:11.646Z,98598.28
2023-04-26T22:17:38.728Z,98610.72
2023-04-26T22:20:06.477Z,98637.16
2023-04-26T22:22:36.945Z,98641.81
2023-04-26T22:25:04.365Z,98642.00
2023-04-26T22:27:34.345Z,98647.44
2023-04-26T22:30:09.412Z,98646.75
2023-04-26T22:32:52.840Z,98654.75
2023-04-26T22:35:22.864Z,98645.28
2023-04-26T22:37:50.120Z,98640.81
2023-04-26T22:40:17.722Z,98649.56
2023-04-26T22:42:47.995Z,98627.38
2023-04-26T22:45:15.396Z,98647.59
2023-04-26T22:47:42.491Z,98634.50
2023-04-26T22:50:10.140Z,98643.19
2023-04-26T22:52:38.761Z,98650.31
2023-04-26T22:55:06.911Z,98669.66
2023-04-26T22:57:33.981Z,98657.59
2023-04-26T23:00:00.956Z,98659.56
2023-04-26T23:02:29.177Z,98640.56
2023-04-26T23:04:56.712Z,98668.38
2023-04-26T23:07:23.922Z,98666.59
2023-04-26T23:09:51.164Z,98671.91
2023-04-26T23:12:20.156Z,98662.38
2023-04-26T23:14:48.830Z,98673.63
2023-04-26T23:17:16.417Z,98671.84
2023-04-26T23:19:43.480Z,98649.38
2023-04-26T23:22:11.090Z,98659.81
2023-04-26T23:24:38.053Z,98686.91
2023-04-26T23:27:05.054Z,98691.34
2023-04-26T23:29:32.028Z,98682.69
2023-04-26T23:31:59.297Z,98673.22
2023-04-26T23:34:26.712Z,98691.72
2023-04-26T23:36:53.743Z,98690.13
2023-04-26T23:39:21.156Z,98694.66
2023-04-26T23:41:48.188Z,98686.75
2023-04-26T23:44:15.381Z,98694.63
2023-04-26T23:46:42.437Z,98698.16
2023-04-26T23:49:09.643Z,98692.97
2023-04-26T23:51:36.841Z,98702.72
2023-04-26T23:54:04.030Z,98672.50
2023-04-26T23:56:31.660Z,98676.88
2023-04-26T23:58:58.687Z,98699.56
